sensor_id;sensor_type;location;lat;lon;timestamp;P1;durP1;ratioP1;P2;durP2;ratioP2
5785;SDS011;2919;48.630;9.000;2023-08-01T00:02:24;7.93;;;2.73;;
5785;SDS011;2919;48.630;9.000;2023-08-01T00:04:50;3.30;;;2.07;;
5785;SDS011;2919;48.630;9.000;2023-08-01T00:07:16;2.43;;;1.50;;
5785;SDS011;2919;48.630;9.000;2023-08-01T00:09:41;3.63;;;1.90;;
5785;SDS011;2919;48.630;9.000;2023-08-01T00:12:07;4.00;;;1.90;;
5785;SDS011;2919;48.630;9.000;2023-08-01T00:14:33;4.10;;;1.40;;
5785;SDS011;2919;48.630;9.000;2023-08-01T00:16:58;3.53;;;2.00;;
5785;SDS011;2919;48.630;9.000;2023-08-01T00:19:24;4.80;;;2.03;;
5785;SDS011;2919;48.630;9.000;2023-08-01T00:21:49;7.07;;;1.93;;
5785;SDS011;2919;48.630;9.000;2023-08-01T00:24:15;13.53;;;2.60;;
5785;SDS011;2919;48.630;9.000;2023-08-01T00:26:41;4.23;;;2.00;;
5785;SDS011;2919;48.630;9.000;2023-08-01T00:29:06;4.50;;;2.00;;
5785;SDS011;2919;48.630;9.000;2023-08-01T00:31:32;4.00;;;1.87;;
5785;SDS011;2919;48.630;9.000;2023-08-01T00:33:57;5.73;;;2.33;;
5785;SDS011;2919;48.630;9.000;2023-08-01T00:36:23;4.17;;;2.00;;
5785;SDS011;2919;48.630;9.000;2023-08-01T00:38:49;5.20;;;2.30;;
5785;SDS011;2919;48.630;9.000;2023-08-01T00:41:14;4.60;;;2.23;;
5785;SDS011;2919;48.630;9.000;2023-08-01T00:43:40;3.80;;;2.17;;
5785;SDS011;2919;48.630;9.000;2023-08-01T00:46:06;3.87;;;1.60;;
5785;SDS011;2919;48.630;9.000;2023-08-01T00:48:33;4.40;;;1.53;;
5785;SDS011;2919;48.630;9.000;2023-08-01T00:50:59;7.80;;;1.70;;
5785;SDS011;2919;48.630;9.000;2023-08-01T00:53:27;5.93;;;1.80;;
5785;SDS011;2919;48.630;9.000;2023-08-01T00:55:54;4.50;;;1.67;;
5785;SDS011;2919;48.630;9.000;2023-08-01T00:58:21;3.00;;;2.03;;
5785;SDS011;2919;48.630;9.000;2023-08-01T01:00:47;3.63;;;1.77;;
5785;SDS011;2919;48.630;9.000;2023-08-01T01:03:13;4.33;;;1.80;;
5785;SDS011;2919;48.630;9.000;2023-08-01T01:05:41;4.87;;;1.97;;
5785;SDS011;2919;48.630;9.000;2023-08-01T01:08:11;3.57;;;1.57;;
5785;SDS011;2919;48.630;9.000;2023-08-01T01:10:37;3.90;;;2.03;;
5785;SDS011;2919;48.630;9.000;2023-08-01T01:13:02;3.50;;;2.20;;
5785;SDS011;2919;48.630;9.000;2023-08-01T01:15:28;6.60;;;2.50;;
5785;SDS011;2919;48.630;9.000;2023-08-01T01:17:53;16.30;;;2.63;;
5785;SDS011;2919;48.630;9.000;2023-08-01T01:20:21;6.60;;;2.33;;
5785;SDS011;2919;48.630;9.000;2023-08-01T01:22:48;6.23;;;2.43;;
5785;SDS011;2919;48.630;9.000;2023-08-01T01:25:16;5.80;;;2.53;;
5785;SDS011;2919;48.630;9.000;2023-08-01T01:27:44;4.77;;;2.10;;
5785;SDS011;2919;48.630;9.000;2023-08-01T01:30:10;5.07;;;2.10;;
5785;SDS011;2919;48.630;9.000;2023-08-01T01:32:37;5.00;;;2.50;;
5785;SDS011;2919;48.630;9.000;2023-08-01T01:35:03;4.90;;;2.10;;
5785;SDS011;2919;48.630;9.000;2023-08-01T01:37:29;5.27;;;2.40;;
5785;SDS011;2919;48.630;9.000;2023-08-01T01:39:55;6.23;;;2.20;;
5785;SDS011;2919;48.630;9.000;2023-08-01T01:42:21;3.97;;;2.00;;
5785;SDS011;2919;48.630;9.000;2023-08-01T01:44:46;7.07;;;3.30;;
5785;SDS011;2919;48.630;9.000;2023-08-01T01:47:12;2.50;;;1.63;;
5785;SDS011;2919;48.630;9.000;2023-08-01T01:49:37;7.60;;;2.23;;
5785;SDS011;2919;48.630;9.000;2023-08-01T01:52:03;4.60;;;2.50;;
5785;SDS011;2919;48.630;9.000;2023-08-01T01:54:29;10.43;;;2.80;;
5785;SDS011;2919;48.630;9.000;2023-08-01T01:56:54;4.47;;;2.27;;
5785;SDS011;2919;48.630;9.000;2023-08-01T01:59:20;2.70;;;1.80;;
5785;SDS011;2919;48.630;9.000;2023-08-01T02:01:45;5.30;;;2.37;;
5785;SDS011;2919;48.630;9.000;2023-08-01T02:04:11;4.27;;;2.00;;
5785;SDS011;2919;48.630;9.000;2023-08-01T02:06:37;8.60;;;2.27;;
5785;SDS011;2919;48.630;9.000;2023-08-01T02:09:02;6.70;;;2.63;;
5785;SDS011;2919;48.630;9.000;2023-08-01T02:11:29;4.80;;;2.57;;
5785;SDS011;2919;48.630;9.000;2023-08-01T02:13:55;4.03;;;1.80;;
5785;SDS011;2919;48.630;9.000;2023-08-01T02:16:21;8.33;;;2.10;;
5785;SDS011;2919;48.630;9.000;2023-08-01T02:18:46;5.07;;;2.40;;
5785;SDS011;2919;48.630;9.000;2023-08-01T02:21:12;6.10;;;3.00;;
5785;SDS011;2919;48.630;9.000;2023-08-01T02:23:38;5.13;;;2.50;;
5785;SDS011;2919;48.630;9.000;2023-08-01T02:26:03;5.47;;;2.20;;
5785;SDS011;2919;48.630;9.000;2023-08-01T02:28:29;3.90;;;2.40;;
5785;SDS011;2919;48.630;9.000;2023-08-01T02:30:54;5.03;;;2.20;;
5785;SDS011;2919;48.630;9.000;2023-08-01T02:33:20;6.90;;;1.93;;
5785;SDS011;2919;48.630;9.000;2023-08-01T02:35:46;3.57;;;1.43;;
5785;SDS011;2919;48.630;9.000;2023-08-01T02:38:12;9.10;;;2.03;;
5785;SDS011;2919;48.630;9.000;2023-08-01T02:40:38;4.20;;;2.33;;
5785;SDS011;2919;48.630;9.000;2023-08-01T02:43:04;5.77;;;2.77;;
5785;SDS011;2919;48.630;9.000;2023-08-01T02:45:29;4.80;;;2.70;;
5785;SDS011;2919;48.630;9.000;2023-08-01T02:47:55;5.30;;;2.40;;
5785;SDS011;2919;48.630;9.000;2023-08-01T02:50:20;4.27;;;1.83;;
5785;SDS011;2919;48.630;9.000;2023-08-01T02:52:46;3.27;;;1.70;;
5785;SDS011;2919;48.630;9.000;2023-08-01T02:55:11;5.10;;;2.40;;
5785;SDS011;2919;48.630;9.000;2023-08-01T02:57:37;3.03;;;1.60;;
5785;SDS011;2919;48.630;9.000;2023-08-01T03:00:03;4.13;;;1.97;;
5785;SDS011;2919;48.630;9.000;2023-08-01T03:02:30;5.53;;;1.93;;
5785;SDS011;2919;48.630;9.000;2023-08-01T03:04:57;13.13;;;2.10;;
5785;SDS011;2919;48.630;9.000;2023-08-01T03:07:22;3.03;;;1.83;;
5785;SDS011;2919;48.630;9.000;2023-08-01T03:09:48;2.73;;;1.70;;
5785;SDS011;2919;48.630;9.000;2023-08-01T03:12:14;3.80;;;1.63;;
5785;SDS011;2919;48.630;9.000;2023-08-01T03:14:39;4.33;;;1.90;;
5785;SDS011;2919;48.630;9.000;2023-08-01T03:17:08;4.23;;;1.90;;
5785;SDS011;2919;48.630;9.000;2023-08-01T03:19:33;5.63;;;1.77;;
5785;SDS011;2919;48.630;9.000;2023-08-01T03:21:59;8.27;;;2.20;;
5785;SDS011;2919;48.630;9.000;2023-08-01T03:24:25;5.10;;;1.77;;
5785;SDS011;2919;48.630;9.000;2023-08-01T03:26:51;4.80;;;2.07;;
5785;SDS011;2919;48.630;9.000;2023-08-01T03:29:16;3.17;;;1.87;;
5785;SDS011;2919;48.630;9.000;2023-08-01T03:31:42;5.13;;;1.73;;
5785;SDS011;2919;48.630;9.000;2023-08-01T03:34:08;6.80;;;2.07;;
5785;SDS011;2919;48.630;9.000;2023-08-01T03:36:34;6.80;;;2.37;;
5785;SDS011;2919;48.630;9.000;2023-08-01T03:39:00;4.83;;;1.80;;
5785;SDS011;2919;48.630;9.000;2023-08-01T03:41:25;8.53;;;2.23;;
5785;SDS011;2919;48.630;9.000;2023-08-01T03:43:51;11.20;;;3.33;;
5785;SDS011;2919;48.630;9.000;2023-08-01T03:46:16;5.13;;;2.03;;
5785;SDS011;2919;48.630;9.000;2023-08-01T03:48:42;4.40;;;1.63;;
5785;SDS011;2919;48.630;9.000;2023-08-01T03:51:08;7.87;;;2.70;;
5785;SDS011;2919;48.630;9.000;2023-08-01T03:53:33;2.73;;;1.47;;
5785;SDS011;2919;48.630;9.000;2023-08-01T03:55:59;7.73;;;2.43;;
5785;SDS011;2919;48.630;9.000;2023-08-01T03:58:25;4.17;;;1.93;;
5785;SDS011;2919;48.630;9.000;2023-08-01T04:00:51;4.07;;;2.00;;
5785;SDS011;2919;48.630;9.000;2023-08-01T04:03:16;4.40;;;2.10;;
5785;SDS011;2919;48.630;9.000;2023-08-01T04:05:42;5.63;;;2.10;;
5785;SDS011;2919;48.630;9.000;2023-08-01T04:08:07;5.33;;;2.10;;
5785;SDS011;2919;48.630;9.000;2023-08-01T04:10:33;2.60;;;1.53;;
5785;SDS011;2919;48.630;9.000;2023-08-01T04:12:59;6.00;;;1.50;;
5785;SDS011;2919;48.630;9.000;2023-08-01T04:15:24;9.63;;;2.50;;
5785;SDS011;2919;48.630;9.000;2023-08-01T04:17:50;4.60;;;1.80;;
5785;SDS011;2919;48.630;9.000;2023-08-01T04:20:16;5.10;;;1.93;;
5785;SDS011;2919;48.630;9.000;2023-08-01T04:22:41;3.20;;;1.57;;
5785;SDS011;2919;48.630;9.000;2023-08-01T04:25:07;5.07;;;2.47;;
5785;SDS011;2919;48.630;9.000;2023-08-01T04:27:33;7.40;;;2.83;;
5785;SDS011;2919;48.630;9.000;2023-08-01T04:29:59;9.80;;;2.00;;
5785;SDS011;2919;48.630;9.000;2023-08-01T04:32:24;6.57;;;2.57;;
5785;SDS011;2919;48.630;9.000;2023-08-01T04:34:50;5.20;;;2.70;;
5785;SDS011;2919;48.630;9.000;2023-08-01T04:37:16;3.83;;;1.83;;
5785;SDS011;2919;48.630;9.000;2023-08-01T04:39:42;3.87;;;2.13;;
5785;SDS011;2919;48.630;9.000;2023-08-01T04:42:08;4.67;;;2.07;;
5785;SDS011;2919;48.630;9.000;2023-08-01T04:44:33;4.53;;;2.43;;
5785;SDS011;2919;48.630;9.000;2023-08-01T04:46:59;3.83;;;1.73;;
5785;SDS011;2919;48.630;9.000;2023-08-01T04:49:25;6.77;;;2.37;;
5785;SDS011;2919;48.630;9.000;2023-08-01T04:51:50;2.70;;;1.50;;
5785;SDS011;2919;48.630;9.000;2023-08-01T04:54:16;4.80;;;1.80;;
5785;SDS011;2919;48.630;9.000;2023-08-01T04:56:42;4.63;;;2.20;;
5785;SDS011;2919;48.630;9.000;2023-08-01T04:59:07;4.80;;;1.67;;
5785;SDS011;2919;48.630;9.000;2023-08-01T05:01:33;4.07;;;2.03;;
5785;SDS011;2919;48.630;9.000;2023-08-01T05:03:59;3.77;;;1.93;;
5785;SDS011;2919;48.630;9.000;2023-08-01T05:06:24;5.73;;;2.30;;
5785;SDS011;2919;48.630;9.000;2023-08-01T05:08:50;4.33;;;1.90;;
5785;SDS011;2919;48.630;9.000;2023-08-01T05:11:16;5.43;;;2.03;;
5785;SDS011;2919;48.630;9.000;2023-08-01T05:13:41;4.53;;;2.37;;
5785;SDS011;2919;48.630;9.000;2023-08-01T05:16:07;5.27;;;1.90;;
5785;SDS011;2919;48.630;9.000;2023-08-01T05:18:32;5.47;;;2.90;;
5785;SDS011;2919;48.630;9.000;2023-08-01T05:20:58;7.67;;;2.40;;
5785;SDS011;2919;48.630;9.000;2023-08-01T05:23:23;4.20;;;1.77;;
5785;SDS011;2919;48.630;9.000;2023-08-01T05:25:49;5.90;;;2.20;;
5785;SDS011;2919;48.630;9.000;2023-08-01T05:28:15;7.90;;;2.60;;
5785;SDS011;2919;48.630;9.000;2023-08-01T05:30:40;7.37;;;2.37;;
5785;SDS011;2919;48.630;9.000;2023-08-01T05:33:06;6.83;;;2.00;;
5785;SDS011;2919;48.630;9.000;2023-08-01T05:35:31;9.30;;;2.47;;
5785;SDS011;2919;48.630;9.000;2023-08-01T05:37:57;3.10;;;1.80;;
5785;SDS011;2919;48.630;9.000;2023-08-01T05:40:24;4.50;;;1.90;;
5785;SDS011;2919;48.630;9.000;2023-08-01T05:42:50;3.00;;;1.50;;
5785;SDS011;2919;48.630;9.000;2023-08-01T05:45:15;9.60;;;2.00;;
5785;SDS011;2919;48.630;9.000;2023-08-01T05:47:41;5.53;;;2.60;;
5785;SDS011;2919;48.630;9.000;2023-08-01T05:50:07;3.00;;;1.83;;
5785;SDS011;2919;48.630;9.000;2023-08-01T05:52:33;6.83;;;1.97;;
5785;SDS011;2919;48.630;9.000;2023-08-01T05:54:59;3.90;;;1.53;;
5785;SDS011;2919;48.630;9.000;2023-08-01T05:57:25;4.00;;;1.70;;
5785;SDS011;2919;48.630;9.000;2023-08-01T05:59:50;4.60;;;2.10;;
5785;SDS011;2919;48.630;9.000;2023-08-01T06:02:16;3.17;;;1.47;;
5785;SDS011;2919;48.630;9.000;2023-08-01T06:04:42;3.77;;;2.00;;
5785;SDS011;2919;48.630;9.000;2023-08-01T06:07:07;7.90;;;2.47;;
5785;SDS011;2919;48.630;9.000;2023-08-01T06:09:33;10.87;;;2.57;;
5785;SDS011;2919;48.630;9.000;2023-08-01T06:11:58;5.10;;;2.60;;
5785;SDS011;2919;48.630;9.000;2023-08-01T06:14:24;3.97;;;1.70;;
5785;SDS011;2919;48.630;9.000;2023-08-01T06:16:50;4.57;;;2.73;;
5785;SDS011;2919;48.630;9.000;2023-08-01T06:19:15;5.17;;;2.23;;
5785;SDS011;2919;48.630;9.000;2023-08-01T06:21:41;4.50;;;2.13;;
5785;SDS011;2919;48.630;9.000;2023-08-01T06:24:07;4.47;;;1.87;;
5785;SDS011;2919;48.630;9.000;2023-08-01T06:26:33;5.47;;;2.03;;
5785;SDS011;2919;48.630;9.000;2023-08-01T06:28:59;3.93;;;1.57;;
5785;SDS011;2919;48.630;9.000;2023-08-01T06:31:24;4.23;;;2.60;;
5785;SDS011;2919;48.630;9.000;2023-08-01T06:33:50;3.43;;;1.90;;
5785;SDS011;2919;48.630;9.000;2023-08-01T06:36:16;3.50;;;1.90;;
5785;SDS011;2919;48.630;9.000;2023-08-01T06:38:42;5.90;;;2.10;;
5785;SDS011;2919;48.630;9.000;2023-08-01T06:41:08;4.53;;;1.63;;
5785;SDS011;2919;48.630;9.000;2023-08-01T06:43:34;6.00;;;2.57;;
5785;SDS011;2919;48.630;9.000;2023-08-01T06:46:02;3.50;;;1.90;;
5785;SDS011;2919;48.630;9.000;2023-08-01T06:48:28;6.97;;;2.73;;
5785;SDS011;2919;48.630;9.000;2023-08-01T06:50:54;6.53;;;1.70;;
5785;SDS011;2919;48.630;9.000;2023-08-01T06:53:19;6.00;;;2.67;;
5785;SDS011;2919;48.630;9.000;2023-08-01T06:55:46;2.60;;;1.40;;
5785;SDS011;2919;48.630;9.000;2023-08-01T06:58:11;3.67;;;1.93;;
5785;SDS011;2919;48.630;9.000;2023-08-01T07:00:37;3.33;;;1.90;;
5785;SDS011;2919;48.630;9.000;2023-08-01T07:03:02;5.70;;;2.17;;
5785;SDS011;2919;48.630;9.000;2023-08-01T07:05:28;5.20;;;2.50;;
5785;SDS011;2919;48.630;9.000;2023-08-01T07:07:54;8.30;;;1.80;;
5785;SDS011;2919;48.630;9.000;2023-08-01T07:10:20;5.63;;;2.70;;
5785;SDS011;2919;48.630;9.000;2023-08-01T07:12:45;6.23;;;2.87;;
5785;SDS011;2919;48.630;9.000;2023-08-01T07:15:11;6.73;;;3.00;;
5785;SDS011;2919;48.630;9.000;2023-08-01T07:17:36;7.50;;;2.97;;
5785;SDS011;2919;48.630;9.000;2023-08-01T07:20:02;5.70;;;2.90;;
5785;SDS011;2919;48.630;9.000;2023-08-01T07:22:28;10.83;;;2.57;;
5785;SDS011;2919;48.630;9.000;2023-08-01T07:24:54;5.77;;;2.60;;
5785;SDS011;2919;48.630;9.000;2023-08-01T07:27:20;9.73;;;2.50;;
5785;SDS011;2919;48.630;9.000;2023-08-01T07:29:46;5.03;;;2.83;;
5785;SDS011;2919;48.630;9.000;2023-08-01T07:32:11;4.23;;;1.93;;
5785;SDS011;2919;48.630;9.000;2023-08-01T07:34:37;5.33;;;2.27;;
5785;SDS011;2919;48.630;9.000;2023-08-01T07:37:03;2.80;;;1.60;;
5785;SDS011;2919;48.630;9.000;2023-08-01T07:39:28;5.63;;;1.90;;
5785;SDS011;2919;48.630;9.000;2023-08-01T07:41:55;6.60;;;2.00;;
5785;SDS011;2919;48.630;9.000;2023-08-01T07:44:21;11.20;;;2.47;;
5785;SDS011;2919;48.630;9.000;2023-08-01T07:46:46;8.63;;;1.90;;
5785;SDS011;2919;48.630;9.000;2023-08-01T07:49:12;7.03;;;2.23;;
5785;SDS011;2919;48.630;9.000;2023-08-01T07:51:38;5.20;;;1.83;;
5785;SDS011;2919;48.630;9.000;2023-08-01T07:54:03;8.20;;;3.73;;
5785;SDS011;2919;48.630;9.000;2023-08-01T07:56:29;2.63;;;1.57;;
5785;SDS011;2919;48.630;9.000;2023-08-01T07:58:54;2.13;;;1.17;;
5785;SDS011;2919;48.630;9.000;2023-08-01T08:01:20;6.93;;;2.27;;
5785;SDS011;2919;48.630;9.000;2023-08-01T08:03:46;5.43;;;1.60;;
5785;SDS011;2919;48.630;9.000;2023-08-01T08:06:11;8.67;;;2.50;;
5785;SDS011;2919;48.630;9.000;2023-08-01T08:08:37;4.80;;;2.53;;
5785;SDS011;2919;48.630;9.000;2023-08-01T08:11:03;5.20;;;2.47;;
5785;SDS011;2919;48.630;9.000;2023-08-01T08:13:29;6.23;;;2.10;;
5785;SDS011;2919;48.630;9.000;2023-08-01T08:15:57;3.20;;;1.63;;
5785;SDS011;2919;48.630;9.000;2023-08-01T08:18:23;4.03;;;1.80;;
5785;SDS011;2919;48.630;9.000;2023-08-01T08:20:49;8.10;;;2.40;;
5785;SDS011;2919;48.630;9.000;2023-08-01T08:23:15;3.03;;;1.60;;
5785;SDS011;2919;48.630;9.000;2023-08-01T08:25:41;8.87;;;3.20;;
5785;SDS011;2919;48.630;9.000;2023-08-01T08:28:07;4.40;;;2.20;;
5785;SDS011;2919;48.630;9.000;2023-08-01T08:30:33;5.13;;;2.00;;
5785;SDS011;2919;48.630;9.000;2023-08-01T08:33:00;3.83;;;1.50;;
5785;SDS011;2919;48.630;9.000;2023-08-01T08:35:29;4.10;;;2.23;;
5785;SDS011;2919;48.630;9.000;2023-08-01T08:37:55;5.20;;;2.13;;
5785;SDS011;2919;48.630;9.000;2023-08-01T08:40:22;3.97;;;1.90;;
5785;SDS011;2919;48.630;9.000;2023-08-01T08:42:47;2.67;;;1.83;;
5785;SDS011;2919;48.630;9.000;2023-08-01T08:45:14;2.23;;;1.33;;
5785;SDS011;2919;48.630;9.000;2023-08-01T08:47:43;2.20;;;1.20;;
5785;SDS011;2919;48.630;9.000;2023-08-01T08:50:12;3.40;;;1.50;;
5785;SDS011;2919;48.630;9.000;2023-08-01T08:52:38;2.70;;;1.53;;
5785;SDS011;2919;48.630;9.000;2023-08-01T08:55:04;4.60;;;1.57;;
5785;SDS011;2919;48.630;9.000;2023-08-01T08:57:31;2.90;;;1.63;;
5785;SDS011;2919;48.630;9.000;2023-08-01T08:59:58;4.57;;;1.80;;
5785;SDS011;2919;48.630;9.000;2023-08-01T09:02:28;2.27;;;1.13;;
5785;SDS011;2919;48.630;9.000;2023-08-01T09:04:53;3.87;;;1.47;;
5785;SDS011;2919;48.630;9.000;2023-08-01T09:07:19;3.93;;;1.90;;
5785;SDS011;2919;48.630;9.000;2023-08-01T09:09:49;3.47;;;1.30;;
5785;SDS011;2919;48.630;9.000;2023-08-01T09:12:15;3.83;;;0.97;;
5785;SDS011;2919;48.630;9.000;2023-08-01T09:14:41;3.43;;;1.40;;
5785;SDS011;2919;48.630;9.000;2023-08-01T09:17:10;2.30;;;1.10;;
5785;SDS011;2919;48.630;9.000;2023-08-01T09:19:36;3.13;;;1.50;;
5785;SDS011;2919;48.630;9.000;2023-08-01T09:22:02;1.80;;;1.00;;
5785;SDS011;2919;48.630;9.000;2023-08-01T09:24:38;2.03;;;0.97;;
5785;SDS011;2919;48.630;9.000;2023-08-01T09:27:04;1.87;;;1.00;;
5785;SDS011;2919;48.630;9.000;2023-08-01T09:29:30;1.63;;;0.80;;
5785;SDS011;2919;48.630;9.000;2023-08-01T09:31:57;2.13;;;0.90;;
5785;SDS011;2919;48.630;9.000;2023-08-01T09:34:26;1.87;;;0.80;;
5785;SDS011;2919;48.630;9.000;2023-08-01T09:36:59;1.40;;;0.70;;
5785;SDS011;2919;48.630;9.000;2023-08-01T09:39:25;4.70;;;0.80;;
5785;SDS011;2919;48.630;9.000;2023-08-01T09:41:58;2.03;;;0.90;;
5785;SDS011;2919;48.630;9.000;2023-08-01T09:44:24;2.80;;;0.83;;
5785;SDS011;2919;48.630;9.000;2023-08-01T09:49:29;1.90;;;1.03;;
5785;SDS011;2919;48.630;9.000;2023-08-01T09:51:56;1.60;;;0.70;;
5785;SDS011;2919;48.630;9.000;2023-08-01T09:54:23;1.10;;;0.50;;
5785;SDS011;2919;48.630;9.000;2023-08-01T09:56:51;1.77;;;0.80;;
5785;SDS011;2919;48.630;9.000;2023-08-01T09:59:21;1.60;;;0.70;;
5785;SDS011;2919;48.630;9.000;2023-08-01T10:01:49;1.87;;;0.70;;
5785;SDS011;2919;48.630;9.000;2023-08-01T10:04:18;1.20;;;0.50;;
5785;SDS011;2919;48.630;9.000;2023-08-01T10:06:49;1.90;;;0.83;;
5785;SDS011;2919;48.630;9.000;2023-08-01T10:09:38;3.30;;;0.70;;
5785;SDS011;2919;48.630;9.000;2023-08-01T10:12:05;1.20;;;0.50;;
5785;SDS011;2919;48.630;9.000;2023-08-01T10:14:32;1.67;;;0.73;;
5785;SDS011;2919;48.630;9.000;2023-08-01T10:16:58;1.50;;;0.70;;
5785;SDS011;2919;48.630;9.000;2023-08-01T10:19:24;1.43;;;0.60;;
5785;SDS011;2919;48.630;9.000;2023-08-01T10:21:51;1.50;;;0.77;;
5785;SDS011;2919;48.630;9.000;2023-08-01T10:24:18;1.80;;;0.60;;
5785;SDS011;2919;48.630;9.000;2023-08-01T10:26:44;1.60;;;0.70;;
5785;SDS011;2919;48.630;9.000;2023-08-01T10:29:11;1.80;;;1.10;;
5785;SDS011;2919;48.630;9.000;2023-08-01T10:31:37;1.27;;;0.50;;
5785;SDS011;2919;48.630;9.000;2023-08-01T10:34:03;1.53;;;0.70;;
5785;SDS011;2919;48.630;9.000;2023-08-01T10:36:38;1.40;;;0.50;;
5785;SDS011;2919;48.630;9.000;2023-08-01T10:39:03;1.60;;;0.80;;
5785;SDS011;2919;48.630;9.000;2023-08-01T10:41:31;1.60;;;0.83;;
5785;SDS011;2919;48.630;9.000;2023-08-01T10:44:13;1.30;;;0.57;;
5785;SDS011;2919;48.630;9.000;2023-08-01T10:49:19;1.30;;;0.60;;
5785;SDS011;2919;48.630;9.000;2023-08-01T10:51:47;1.40;;;0.60;;
5785;SDS011;2919;48.630;9.000;2023-08-01T10:56:48;1.20;;;0.50;;
5785;SDS011;2919;48.630;9.000;2023-08-01T10:59:15;2.57;;;0.77;;
5785;SDS011;2919;48.630;9.000;2023-08-01T11:01:45;1.40;;;0.60;;
5785;SDS011;2919;48.630;9.000;2023-08-01T11:04:13;1.30;;;0.50;;
5785;SDS011;2919;48.630;9.000;2023-08-01T11:06:47;1.30;;;0.60;;
5785;SDS011;2919;48.630;9.000;2023-08-01T11:09:21;1.40;;;0.50;;
5785;SDS011;2919;48.630;9.000;2023-08-01T11:11:49;1.80;;;0.73;;
5785;SDS011;2919;48.630;9.000;2023-08-01T11:14:19;1.60;;;0.70;;
5785;SDS011;2919;48.630;9.000;2023-08-01T11:16:49;2.50;;;0.80;;
5785;SDS011;2919;48.630;9.000;2023-08-01T11:19:33;1.40;;;0.80;;
5785;SDS011;2919;48.630;9.000;2023-08-01T11:21:59;1.73;;;0.70;;
5785;SDS011;2919;48.630;9.000;2023-08-01T11:24:35;1.60;;;0.70;;
5785;SDS011;2919;48.630;9.000;2023-08-01T11:27:00;1.40;;;0.63;;
5785;SDS011;2919;48.630;9.000;2023-08-01T11:29:26;1.50;;;0.77;;
5785;SDS011;2919;48.630;9.000;2023-08-01T11:31:53;4.10;;;0.83;;
5785;SDS011;2919;48.630;9.000;2023-08-01T11:34:20;2.67;;;0.90;;
5785;SDS011;2919;48.630;9.000;2023-08-01T11:36:46;3.10;;;0.80;;
5785;SDS011;2919;48.630;9.000;2023-08-01T11:39:12;1.50;;;0.60;;
5785;SDS011;2919;48.630;9.000;2023-08-01T11:41:40;2.73;;;1.10;;
5785;SDS011;2919;48.630;9.000;2023-08-01T11:44:07;2.27;;;0.90;;
5785;SDS011;2919;48.630;9.000;2023-08-01T11:46:34;2.30;;;1.10;;
5785;SDS011;2919;48.630;9.000;2023-08-01T11:49:03;9.17;;;0.90;;
5785;SDS011;2919;48.630;9.000;2023-08-01T11:51:30;2.60;;;0.90;;
5785;SDS011;2919;48.630;9.000;2023-08-01T11:54:08;1.40;;;0.60;;
5785;SDS011;2919;48.630;9.000;2023-08-01T11:56:36;2.53;;;0.70;;
5785;SDS011;2919;48.630;9.000;2023-08-01T11:59:09;1.70;;;0.60;;
5785;SDS011;2919;48.630;9.000;2023-08-01T12:01:38;1.50;;;0.53;;
5785;SDS011;2919;48.630;9.000;2023-08-01T12:04:08;2.57;;;0.77;;
5785;SDS011;2919;48.630;9.000;2023-08-01T12:06:34;9.93;;;1.00;;
5785;SDS011;2919;48.630;9.000;2023-08-01T12:09:11;1.83;;;0.60;;
5785;SDS011;2919;48.630;9.000;2023-08-01T12:11:38;2.10;;;0.93;;
5785;SDS011;2919;48.630;9.000;2023-08-01T12:16:37;3.50;;;0.93;;
5785;SDS011;2919;48.630;9.000;2023-08-01T12:19:03;1.90;;;0.70;;
5785;SDS011;2919;48.630;9.000;2023-08-01T12:21:30;4.93;;;0.93;;
5785;SDS011;2919;48.630;9.000;2023-08-01T12:23:57;1.40;;;0.70;;
5785;SDS011;2919;48.630;9.000;2023-08-01T12:26:22;2.40;;;0.90;;
5785;SDS011;2919;48.630;9.000;2023-08-01T12:28:48;2.73;;;0.80;;
5785;SDS011;2919;48.630;9.000;2023-08-01T12:31:17;2.07;;;0.80;;
5785;SDS011;2919;48.630;9.000;2023-08-01T12:33:44;2.47;;;0.80;;
5785;SDS011;2919;48.630;9.000;2023-08-01T12:36:10;2.43;;;0.80;;
5785;SDS011;2919;48.630;9.000;2023-08-01T12:38:36;1.30;;;0.60;;
5785;SDS011;2919;48.630;9.000;2023-08-01T12:41:02;3.03;;;1.33;;
5785;SDS011;2919;48.630;9.000;2023-08-01T12:43:27;3.00;;;0.80;;
5785;SDS011;2919;48.630;9.000;2023-08-01T12:45:53;1.90;;;0.97;;
5785;SDS011;2919;48.630;9.000;2023-08-01T12:48:20;1.67;;;0.60;;
5785;SDS011;2919;48.630;9.000;2023-08-01T12:50:46;1.80;;;0.87;;
5785;SDS011;2919;48.630;9.000;2023-08-01T12:53:13;1.40;;;0.70;;
5785;SDS011;2919;48.630;9.000;2023-08-01T12:55:40;1.60;;;0.70;;
5785;SDS011;2919;48.630;9.000;2023-08-01T12:58:08;3.93;;;1.03;;
5785;SDS011;2919;48.630;9.000;2023-08-01T13:00:34;1.67;;;0.70;;
5785;SDS011;2919;48.630;9.000;2023-08-01T13:02:59;2.07;;;0.90;;
5785;SDS011;2919;48.630;9.000;2023-08-01T13:05:25;2.00;;;0.70;;
5785;SDS011;2919;48.630;9.000;2023-08-01T13:07:51;1.70;;;0.80;;
5785;SDS011;2919;48.630;9.000;2023-08-01T13:10:16;4.50;;;0.70;;
5785;SDS011;2919;48.630;9.000;2023-08-01T13:12:42;2.27;;;0.90;;
5785;SDS011;2919;48.630;9.000;2023-08-01T13:15:08;2.30;;;1.10;;
5785;SDS011;2919;48.630;9.000;2023-08-01T13:17:34;1.87;;;0.80;;
5785;SDS011;2919;48.630;9.000;2023-08-01T13:20:00;5.53;;;0.93;;
5785;SDS011;2919;48.630;9.000;2023-08-01T13:22:26;3.47;;;0.87;;
5785;SDS011;2919;48.630;9.000;2023-08-01T13:24:51;2.03;;;0.93;;
5785;SDS011;2919;48.630;9.000;2023-08-01T13:27:17;1.63;;;0.77;;
5785;SDS011;2919;48.630;9.000;2023-08-01T13:29:42;1.70;;;0.70;;
5785;SDS011;2919;48.630;9.000;2023-08-01T13:32:08;2.00;;;0.77;;
5785;SDS011;2919;48.630;9.000;2023-08-01T13:34:34;1.87;;;0.80;;
5785;SDS011;2919;48.630;9.000;2023-08-01T13:36:59;2.30;;;1.03;;
5785;SDS011;2919;48.630;9.000;2023-08-01T13:39:25;2.77;;;0.90;;
5785;SDS011;2919;48.630;9.000;2023-08-01T13:41:50;2.07;;;0.70;;
5785;SDS011;2919;48.630;9.000;2023-08-01T13:44:16;2.43;;;1.00;;
5785;SDS011;2919;48.630;9.000;2023-08-01T13:46:41;1.70;;;0.77;;
5785;SDS011;2919;48.630;9.000;2023-08-01T13:49:07;1.30;;;0.50;;
5785;SDS011;2919;48.630;9.000;2023-08-01T13:51:33;2.17;;;1.13;;
5785;SDS011;2919;48.630;9.000;2023-08-01T13:53:59;5.20;;;1.00;;
5785;SDS011;2919;48.630;9.000;2023-08-01T13:56:25;5.20;;;0.60;;
5785;SDS011;2919;48.630;9.000;2023-08-01T13:58:51;2.53;;;1.00;;
5785;SDS011;2919;48.630;9.000;2023-08-01T14:01:17;2.30;;;0.80;;
5785;SDS011;2919;48.630;9.000;2023-08-01T14:03:45;2.33;;;0.87;;
5785;SDS011;2919;48.630;9.000;2023-08-01T14:06:12;2.20;;;1.13;;
5785;SDS011;2919;48.630;9.000;2023-08-01T14:08:39;2.13;;;0.97;;
5785;SDS011;2919;48.630;9.000;2023-08-01T14:11:06;3.13;;;1.10;;
5785;SDS011;2919;48.630;9.000;2023-08-01T14:13:33;2.03;;;1.00;;
5785;SDS011;2919;48.630;9.000;2023-08-01T14:16:00;2.03;;;1.00;;
5785;SDS011;2919;48.630;9.000;2023-08-01T14:18:27;1.90;;;0.80;;
5785;SDS011;2919;48.630;9.000;2023-08-01T14:20:53;2.17;;;1.20;;
5785;SDS011;2919;48.630;9.000;2023-08-01T14:23:19;2.57;;;1.27;;
5785;SDS011;2919;48.630;9.000;2023-08-01T14:25:45;2.47;;;0.93;;
5785;SDS011;2919;48.630;9.000;2023-08-01T14:28:11;1.60;;;0.90;;
5785;SDS011;2919;48.630;9.000;2023-08-01T14:30:37;2.73;;;1.10;;
5785;SDS011;2919;48.630;9.000;2023-08-01T14:33:05;2.90;;;1.13;;
5785;SDS011;2919;48.630;9.000;2023-08-01T14:35:35;2.77;;;1.03;;
5785;SDS011;2919;48.630;9.000;2023-08-01T14:38:02;1.70;;;0.87;;
5785;SDS011;2919;48.630;9.000;2023-08-01T14:40:28;3.20;;;1.20;;
5785;SDS011;2919;48.630;9.000;2023-08-01T14:42:54;5.10;;;0.80;;
5785;SDS011;2919;48.630;9.000;2023-08-01T14:45:21;1.90;;;0.80;;
5785;SDS011;2919;48.630;9.000;2023-08-01T14:47:46;2.00;;;0.83;;
5785;SDS011;2919;48.630;9.000;2023-08-01T14:50:13;7.73;;;1.13;;
5785;SDS011;2919;48.630;9.000;2023-08-01T14:52:39;2.40;;;0.93;;
5785;SDS011;2919;48.630;9.000;2023-08-01T14:55:06;6.00;;;1.10;;
5785;SDS011;2919;48.630;9.000;2023-08-01T14:57:33;2.00;;;0.90;;
5785;SDS011;2919;48.630;9.000;2023-08-01T14:59:59;5.83;;;1.13;;
5785;SDS011;2919;48.630;9.000;2023-08-01T15:02:25;2.50;;;1.03;;
5785;SDS011;2919;48.630;9.000;2023-08-01T15:04:51;1.90;;;0.80;;
5785;SDS011;2919;48.630;9.000;2023-08-01T15:07:21;2.33;;;0.53;;
5785;SDS011;2919;48.630;9.000;2023-08-01T15:09:47;2.10;;;1.10;;
5785;SDS011;2919;48.630;9.000;2023-08-01T15:12:14;2.00;;;0.90;;
5785;SDS011;2919;48.630;9.000;2023-08-01T15:14:40;1.83;;;0.80;;
5785;SDS011;2919;48.630;9.000;2023-08-01T15:17:06;1.90;;;0.80;;
5785;SDS011;2919;48.630;9.000;2023-08-01T15:19:33;2.13;;;0.93;;
5785;SDS011;2919;48.630;9.000;2023-08-01T15:21:59;1.60;;;0.77;;